Time;durP1;ratioP1;P1;durP2;ratioP2;P2;SDS_P1;SDS_P2;PMS_P1;PMS_P2;Temp;Humidity;BMP_temperature;BMP_pressure;BME280_temperature;BME280_humidity;BME280_pressure;Samples;Min_cycle;Max_cycle;Signal;HPM_P1;HPM_P2
2022/02/17 00:02:20;;;;;;;66.70;39.18;;;;;;;1.28;100.00;98689.05;1746154;81;21503;-61
2022/02/17 00:04:47;;;;;;;72.00;42.95;;;;;;;1.28;100.00;98686.36;1754363;81;21553;-61
2022/02/17 00:07:13;;;;;;;70.75;42.43;;;;;;;1.29;100.00;98681.30;1746302;81;21055;-61
2022/02/17 00:09:40;;;;;;;67.05;39.03;;;;;;;1.30;100.00;98671.69;1747147;81;21001;-61
2022/02/17 00:12:07;;;;;;;64.82;40.05;;;;;;;1.29;100.00;98659.85;1761719;80;21031;-61
2022/02/17 00:14:35;;;;;;;70.75;42.35;;;;;;;1.29;100.00;98663.88;1704287;82;20992;-61
2022/02/17 00:17:02;;;;;;;63.80;36.25;;;;;;;1.28;100.00;98663.05;1740066;81;21105;-61
2022/02/17 00:19:29;;;;;;;67.50;40.20;;;;;;;1.29;100.00;98668.71;1746663;81;21466;-61
2022/02/17 00:21:56;;;;;;;68.60;41.45;;;;;;;1.29;100.00;98667.37;1731553;81;21486;-61
2022/02/17 00:24:22;;;;;;;61.20;38.40;;;;;;;1.31;100.00;98664.47;1734343;81;20943;-61
2022/02/17 00:26:48;;;;;;;72.45;41.85;;;;;;;1.33;100.00;98662.34;1739038;81;21050;-62
2022/02/17 00:29:15;;;;;;;63.75;39.65;;;;;;;1.33;100.00;98650.28;1754362;81;20999;-61
2022/02/17 00:31:41;;;;;;;;;;;;;;;1.33;100.00;98650.28;1740848;82;21538;-61
2022/02/17 00:34:08;;;;;;;69.85;42.62;;;;;;;1.33;100.00;98642.23;1736054;81;20162;-62
2022/02/17 00:36:37;;;;;;;66.40;41.53;;;;;;;1.31;100.00;98637.10;1703088;82;21034;-61
2022/02/17 00:39:04;;;;;;;64.20;39.35;;;;;;;1.34;100.00;98631.81;1746601;81;20939;-62
2022/02/17 00:41:31;;;;;;;68.90;42.70;;;;;;;1.37;100.00;98624.62;1724521;81;21015;-61
2022/02/17 00:43:57;;;;;;;68.50;41.80;;;;;;;1.38;100.00;98614.98;1758142;81;21386;-62
2022/02/17 00:46:24;;;;;;;69.53;43.58;;;;;;;1.41;100.00;98612.38;1731005;82;21018;-62
2022/02/17 00:48:50;;;;;;;66.47;43.00;;;;;;;1.40;100.00;98607.53;1743578;81;21058;-61
2022/02/17 00:51:17;;;;;;;63.35;39.95;;;;;;;1.41;100.00;98598.44;1737384;81;20983;-61
2022/02/17 00:53:43;;;;;;;70.08;43.60;;;;;;;1.42;100.00;98600.05;1752451;81;21011;-61
2022/02/17 00:56:11;;;;;;;66.45;42.03;;;;;;;1.40;100.00;98596.80;1737930;82;21007;-61
2022/02/17 00:58:37;;;;;;;71.47;44.27;;;;;;;1.39;100.00;98582.28;1743218;81;21042;-62
2022/02/17 01:01:05;;;;;;;68.30;42.43;;;;;;;1.31;100.00;98557.22;1732035;82;21078;-61
2022/02/17 01:03:32;;;;;;;72.37;41.58;;;;;;;1.38;100.00;98571.29;1746237;81;21030;-62
2022/02/17 01:05:58;;;;;;;69.58;41.83;;;;;;;1.38;100.00;98567.27;1736453;82;21612;-61
2022/02/17 01:08:25;;;;;;;66.12;41.53;;;;;;;1.35;100.00;98556.48;1748763;81;21095;-62
2022/02/17 01:10:53;;;;;;;62.83;39.27;;;;;;;1.35;100.00;98548.43;1729580;82;21030;-61
2022/02/17 01:13:23;;;;;;;66.75;40.98;;;;;;;1.34;100.00;98545.48;1737660;81;21369;-61
2022/02/17 01:15:51;;;;;;;65.70;41.02;;;;;;;1.32;100.00;98536.03;1744227;81;21550;-61
2022/02/17 01:18:17;;;;;;;61.05;39.50;;;;;;;1.31;100.00;98538.45;1743442;81;21087;-62
2022/02/17 01:20:46;;;;;;;61.55;39.53;;;;;;;1.28;100.00;98542.41;1745611;82;20992;-61
2022/02/17 01:23:13;;;;;;;61.35;38.88;;;;;;;1.28;100.00;98533.02;1748897;81;21003;-62
2022/02/17 01:25:41;;;;;;;60.08;38.73;;;;;;;1.26;100.00;98530.30;1727861;81;21027;-61
2022/02/17 01:32:54;;;;;;;61.77;39.83;;;;;;;1.11;100.00;98495.99;1786387;79;23639;-61
2022/02/17 01:35:20;;;;;;;;;;;;;;;1.02;100.00;98495.29;1736830;82;21007;-61
2022/02/17 01:38:06;;;;;;;64.10;39.65;;;;;;;1.04;100.00;98486.47;1737902;82;20095;-61
2022/02/17 01:40:35;;;;;;;64.85;42.88;;;;;;;1.00;100.00;98489.64;1727091;82;20979;-68
2022/02/17 01:43:03;;;;;;;66.28;40.33;;;;;;;1.01;100.00;98485.09;1736268;82;21051;-62
2022/02/17 01:45:30;;;;;;;58.08;38.98;;;;;;;1.01;100.00;98477.05;1725574;82;21018;-63
2022/02/17 01:47:57;;;;;;;62.50;40.73;;;;;;;1.02;100.00;98473.33;1732478;82;21031;-63
2022/02/17 01:50:25;;;;;;;60.95;38.30;;;;;;;0.99;100.00;98467.12;1727004;82;20983;-62
2022/02/17 01:52:52;;;;;;;62.35;40.85;;;;;;;0.99;100.00;98457.73;1723743;82;21105;-61
2022/02/17 01:55:20;;;;;;;;;;;;;;;0.96;100.00;98456.85;1731992;82;20945;-61
2022/02/17 01:57:46;;;;;;;62.00;39.33;;;;;;;0.94;100.00;98446.91;1728546;82;20498;-61
2022/02/17 02:00:15;;;;;;;59.53;40.05;;;;;;;0.91;100.00;98442.05;1745366;82;21041;-60
2022/02/17 02:02:42;;;;;;;;;;;;;;;0.90;100.00;98432.37;1707093;82;21066;-61
2022/02/17 02:05:09;;;;;;;61.90;39.00;;;;;;;0.91;100.00;98438.02;1735887;82;20155;-62
2022/02/17 02:07:37;;;;;;;63.58;40.80;;;;;;;0.89;100.00;98434.23;1734060;82;21023;-62
2022/02/17 02:10:05;;;;;;;62.27;39.45;;;;;;;0.91;100.00;98425.44;1710117;82;20979;-62
2022/02/17 02:12:35;;;;;;;62.27;39.10;;;;;;;0.94;100.00;98421.45;1735633;82;21018;-61
2022/02/17 02:15:05;;;;;;;58.40;39.27;;;;;;;0.95;100.00;98424.44;1729876;82;20987;-61
2022/02/17 02:17:33;;;;;;;59.90;38.63;;;;;;;0.95;100.00;98412.38;1730433;82;21054;-62
2022/02/17 02:20:04;;;;;;;60.03;39.05;;;;;;;0.94;100.00;98408.06;1729947;82;21450;-61
2022/02/17 02:22:33;;;;;;;58.45;38.40;;;;;;;0.93;100.00;98404.56;1735067;82;21677;-62
2022/02/17 02:25:00;;;;;;;59.30;38.60;;;;;;;0.96;100.00;98396.56;1730282;82;20990;-62
2022/02/17 02:27:28;;;;;;;62.23;40.45;;;;;;;0.97;100.00;98400.35;1724779;82;21038;-62
2022/02/17 02:29:55;;;;;;;60.00;39.50;;;;;;;0.97;100.00;98391.50;1740777;82;21435;-62
2022/02/17 02:32:24;;;;;;;59.03;41.35;;;;;;;0.98;100.00;98381.08;1737509;82;21079;-62
2022/02/17 02:34:50;;;;;;;60.73;39.27;;;;;;;0.98;100.00;98379.73;1728535;82;20956;-61
2022/02/17 02:37:17;;;;;;;61.23;41.10;;;;;;;1.01;100.00;98375.22;1732554;82;21107;-60
2022/02/17 02:39:44;;;;;;;60.75;41.23;;;;;;;1.06;100.00;98363.78;1716430;82;20972;-61
2022/02/17 02:42:10;;;;;;;59.63;39.00;;;;;;;1.13;100.00;98365.77;1689630;83;21090;-61
2022/02/17 02:44:37;;;;;;;;;;;;;;;1.17;100.00;98362.89;1714915;82;21015;-61
2022/02/17 02:47:06;;;;;;;67.12;41.35;;;;;;;1.17;100.00;98352.95;1726700;82;20120;-61
2022/02/17 02:49:36;;;;;;;58.20;39.58;;;;;;;1.18;100.00;98346.55;1710325;82;21043;-61
2022/02/17 02:52:05;;;;;;;65.95;43.45;;;;;;;1.24;100.00;98354.16;1711096;82;21059;-61
2022/02/17 02:54:38;;;;;;;64.25;41.92;;;;;;;1.21;100.00;98327.81;1710844;82;21432;-61
2022/02/17 02:57:05;;;;;;;62.93;40.70;;;;;;;1.36;100.00;98338.24;1724560;82;21645;-61
2022/02/17 02:59:34;;;;;;;72.10;46.45;;;;;;;1.43;100.00;98328.16;1712118;82;21606;-61
2022/02/17 03:02:01;;;;;;;68.97;44.33;;;;;;;1.42;100.00;98310.95;1716941;82;21116;-61
2022/02/17 03:04:28;;;;;;;;;;;;;;;1.55;100.00;98317.33;1734780;81;21449;-61
2022/02/17 03:06:56;;;;;;;71.50;43.23;;;;;;;1.62;100.00;98315.27;1713750;81;20117;-61
2022/02/17 03:09:23;;;;;;;70.05;43.75;;;;;;;1.64;100.00;98321.19;1716614;82;21507;-61
2022/02/17 03:11:49;;;;;;;;;;;;;;;1.69;100.00;98330.66;1735823;82;21004;-60
2022/02/17 03:14:16;;;;;;;71.37;45.00;;;;;;;1.74;100.00;98317.29;1728321;82;20099;-61
2022/02/17 03:16:44;;;;;;;69.22;42.80;;;;;;;1.75;100.00;98314.90;1724202;82;21688;-61
2022/02/17 03:19:13;;;;;;;63.60;42.03;;;;;;;1.77;100.00;98302.59;1711439;82;21078;-61
2022/02/17 03:21:40;;;;;;;60.20;41.28;;;;;;;1.79;100.00;98299.11;1714167;82;21038;-61
2022/02/17 03:24:07;;;;;;;68.20;42.45;;;;;;;1.82;100.00;98295.92;1713589;82;20944;-60
2022/02/17 03:26:35;;;;;;;62.43;40.75;;;;;;;1.87;100.00;98292.79;1719404;82;21059;-61
2022/02/17 03:29:03;;;;;;;65.60;41.92;;;;;;;1.90;100.00;98296.31;1732817;82;20983;-61
2022/02/17 03:31:32;;;;;;;70.20;43.15;;;;;;;1.92;100.00;98289.33;1722307;82;21537;-60
2022/02/17 03:34:00;;;;;;;65.22;41.20;;;;;;;1.92;100.00;98290.14;1729725;82;21035;-61
2022/02/17 03:36:27;;;;;;;62.08;40.75;;;;;;;1.93;100.00;98298.48;1739560;82;21110;-60
2022/02/17 03:38:57;;;;;;;64.70;41.45;;;;;;;1.94;100.00;98300.64;1736893;82;21118;-61
2022/02/17 03:41:26;;;;;;;65.92;41.75;;;;;;;1.96;100.00;98295.30;1727311;82;21598;-60
2022/02/17 03:43:55;;;;;;;66.05;41.77;;;;;;;1.98;100.00;98291.03;1734423;82;21086;-61
2022/02/17 03:46:23;;;;;;;65.92;42.73;;;;;;;1.97;100.00;98274.12;1734820;82;21259;-61
2022/02/17 03:48:50;;;;;;;65.30;43.15;;;;;;;1.98;100.00;98274.93;1740035;82;21052;-60
2022/02/17 03:51:19;;;;;;;67.32;41.83;;;;;;;1.99;100.00;98279.21;1733593;82;21507;-61
2022/02/17 03:53:45;;;;;;;68.55;43.63;;;;;;;1.99;100.00;98272.50;1700181;83;21043;-61
2022/02/17 03:56:12;;;;;;;72.67;45.28;;;;;;;2.02;100.00;98263.16;1728014;82;21015;-61
2022/02/17 04:01:26;;;;;;;70.12;43.50;;;;;;;2.02;100.00;98259.92;1725308;82;20975;-60
2022/02/17 04:03:55;;;;;;;68.72;44.18;;;;;;;2.02;100.00;98253.77;1734498;82;21015;-60
2022/02/17 04:06:21;;;;;;;66.57;42.45;;;;;;;2.00;100.00;98243.27;1703304;83;20971;-60
2022/02/17 04:08:50;;;;;;;64.37;41.13;;;;;;;1.99;100.00;98243.80;1731658;82;21518;-60
2022/02/17 04:11:17;;;;;;;72.60;44.25;;;;;;;1.99;100.00;98249.69;1736605;81;20957;-60
2022/02/17 04:13:46;;;;;;;67.95;42.75;;;;;;;1.99;100.00;98241.11;1716946;82;21004;-60
2022/02/17 04:16:13;;;;;;;72.20;44.53;;;;;;;1.98;100.00;98228.75;1721819;82;21433;-61
2022/02/17 04:18:45;;;;;;;67.65;43.15;;;;;;;1.96;100.00;98224.70;1728052;82;21015;-60
2022/02/17 04:21:17;;;;;;;70.60;44.10;;;;;;;1.97;100.00;98238.41;1727889;82;20975;-60
2022/02/17 04:24:02;;;;;;;69.92;42.40;;;;;;;1.96;100.00;98226.05;1722145;82;21012;-60
2022/02/17 04:26:33;;;;;;;70.47;44.30;;;;;;;1.95;100.00;98209.66;1731326;82;20964;-59
2022/02/17 04:29:01;;;;;;;72.08;44.25;;;;;;;1.95;100.00;98201.60;1719883;82;20987;-60
2022/02/17 04:31:29;;;;;;;70.40;44.80;;;;;;;1.94;100.00;98204.03;1717088;82;21487;-60
2022/02/17 04:33:56;;;;;;;73.55;45.40;;;;;;;1.92;100.00;98197.56;1710264;82;21576;-60
2022/02/17 04:36:25;;;;;;;71.75;45.33;;;;;;;1.92;100.00;98194.06;1717468;82;20972;-60
2022/02/17 04:38:52;;;;;;;71.07;44.65;;;;;;;1.89;100.00;98187.87;1722959;82;21581;-60
2022/02/17 04:44:10;;;;;;;68.40;45.03;;;;;;;1.90;100.00;98185.47;1709660;82;20944;-60
2022/02/17 04:46:39;;;;;;;66.00;42.15;;;;;;;1.88;100.00;98184.37;1714121;82;21008;-60
2022/02/17 04:49:05;;;;;;;67.47;44.10;;;;;;;1.91;100.00;98181.73;1717598;82;21099;-60
2022/02/17 04:51:31;;;;;;;;;;;;;;;1.89;100.00;98161.84;1716664;82;21012;-60
2022/02/17 04:53:58;;;;;;;70.08;41.65;;;;;;;1.93;100.00;98159.47;1725217;82;20143;-60
2022/02/17 04:56:24;;;;;;;68.00;45.25;;;;;;;1.90;100.00;98158.11;1732063;82;20968;-59
2022/02/17 04:58:51;;;;;;;67.32;43.13;;;;;;;1.95;100.00;98159.48;1715140;82;21090;-60
2022/02/17 05:01:18;;;;;;;70.28;44.55;;;;;;;1.97;100.00;98149.31;1728257;82;21039;-60
2022/02/17 05:03:45;;;;;;;68.97;43.60;;;;;;;2.00;100.00;98149.33;1712690;82;21071;-60
2022/02/17 05:06:13;;;;;;;68.02;43.63;;;;;;;2.01;100.00;98152.30;1727392;81;21020;-59
2022/02/17 05:08:46;;;;;;;67.65;42.25;;;;;;;2.03;100.00;98142.11;1714466;82;21051;-60
2022/02/17 05:11:13;;;;;;;68.95;43.42;;;;;;;2.08;100.00;98144.03;1694729;82;20980;-61
2022/02/17 05:13:40;;;;;;;67.10;42.30;;;;;;;2.09;100.00;98134.92;1725020;82;21023;-60
2022/02/17 05:16:08;;;;;;;63.13;41.40;;;;;;;2.09;100.00;98124.97;1725174;82;21000;-59
2022/02/17 05:18:36;;;;;;;68.92;43.70;;;;;;;2.11;100.00;98120.17;1716452;82;21491;-61
2022/02/17 05:21:04;;;;;;;66.82;43.00;;;;;;;2.13;100.00;98122.58;1717299;82;21566;-61
2022/02/17 05:23:32;;;;;;;63.38;41.58;;;;;;;2.12;100.00;98115.62;1714177;82;21126;-60
2022/02/17 05:26:07;;;;;;;65.32;41.80;;;;;;;2.13;100.00;98101.92;1710476;82;20956;-61
2022/02/17 05:28:41;;;;;;;62.58;40.28;;;;;;;2.15;100.00;98106.52;1724754;82;21032;-60
2022/02/17 05:31:27;;;;;;;65.30;39.73;;;;;;;2.15;100.00;98101.16;1722205;82;20964;-61
2022/02/17 05:34:12;;;;;;;63.33;40.67;;;;;;;2.18;100.00;98106.53;1723977;82;21023;-61
2022/02/17 05:36:43;;;;;;;62.90;40.20;;;;;;;2.17;100.00;98089.61;1715075;82;20943;-60
2022/02/17 05:39:23;;;;;;;66.10;41.40;;;;;;;2.19;100.00;98088.84;1708260;82;20968;-60
2022/02/17 05:41:52;;;;;;;64.55;40.40;;;;;;;2.18;100.00;98093.11;1731804;82;21162;-61
2022/02/17 05:44:18;;;;;;;66.90;40.52;;;;;;;2.18;100.00;98095.27;1715681;82;21051;-61
2022/02/17 05:46:44;;;;;;;65.35;41.75;;;;;;;2.20;100.00;98085.59;1723815;82;21534;-61
2022/02/17 05:49:11;;;;;;;;;;;;;;;2.21;100.00;98076.48;1710891;82;21629;-61
2022/02/17 05:51:37;;;;;;;67.95;41.08;;;;;;;2.18;100.00;98075.13;1713389;82;20137;-61
2022/02/17 05:54:04;;;;;;;63.98;40.25;;;;;;;2.17;100.00;98074.03;1721077;82;21477;-60
2022/02/17 05:56:32;;;;;;;65.30;41.37;;;;;;;2.18;100.00;98075.66;1721853;82;21625;-60
2022/02/17 05:58:59;;;;;;;67.00;41.05;;;;;;;2.17;100.00;98070.81;1721474;82;21523;-60
2022/02/17 06:01:25;;;;;;;67.55;42.17;;;;;;;2.18;100.00;98060.36;1722308;82;21538;-60
2022/02/17 06:03:52;;;;;;;65.50;42.00;;;;;;;2.20;100.00;98072.17;1726055;82;21542;-60
2022/02/17 06:06:19;;;;;;;62.50;40.05;;;;;;;2.19;100.00;98060.65;1725170;82;21616;-60
2022/02/17 06:08:45;;;;;;;68.20;41.40;;;;;;;2.20;100.00;98065.45;1713808;82;21629;-62
2022/02/17 06:11:12;;;;;;;68.65;41.85;;;;;;;2.23;100.00;98059.04;1714616;82;21557;-61
2022/02/17 06:13:39;;;;;;;73.87;41.68;;;;;;;2.23;100.00;98053.67;1728231;82;21692;-62
2022/02/17 06:16:06;;;;;;;73.50;42.20;;;;;;;2.23;100.00;98052.33;1723027;82;21684;-60
2022/02/17 06:18:33;;;;;;;63.48;40.63;;;;;;;2.26;100.00;98045.66;1717345;82;21590;-59
2022/02/17 06:21:00;;;;;;;65.85;39.92;;;;;;;2.30;100.00;98033.33;1709612;82;21594;-62
2022/02/17 06:23:27;;;;;;;68.30;41.68;;;;;;;2.33;100.00;98018.85;1721793;82;21091;-62
2022/02/17 06:25:53;;;;;;;70.37;41.73;;;;;;;2.34;100.00;98019.11;1728049;82;20983;-61
2022/02/17 06:28:20;;;;;;;67.42;41.60;;;;;;;2.38;100.00;98025.58;1709056;82;21055;-62
2022/02/17 06:30:47;;;;;;;63.13;40.83;;;;;;;2.37;100.00;98021.27;1725878;82;20960;-62
2022/02/17 06:33:13;;;;;;;67.62;40.67;;;;;;;2.39;100.00;98033.10;1718213;81;21619;-62
2022/02/17 06:35:40;;;;;;;69.12;42.10;;;;;;;2.42;100.00;98023.17;1722569;83;21094;-63
2022/02/17 06:38:07;;;;;;;63.55;39.10;;;;;;;2.42;100.00;98019.15;1729009;82;21528;-62
2022/02/17 06:40:34;;;;;;;64.42;39.58;;;;;;;2.43;100.00;98020.25;1724570;82;21049;-63
2022/02/17 06:43:07;;;;;;;66.00;39.78;;;;;;;2.48;100.00;98004.67;1734780;82;21035;-63
2022/02/17 06:45:35;;;;;;;69.92;41.18;;;;;;;2.54;100.00;98006.86;1749368;82;21078;-61
2022/02/17 06:48:04;;;;;;;64.50;39.78;;;;;;;2.59;100.00;98004.20;1726661;82;21569;-61
2022/02/17 06:50:31;;;;;;;68.17;39.95;;;;;;;2.64;100.00;98001.53;1738530;82;20944;-62
2022/02/17 06:52:59;;;;;;;62.75;38.60;;;;;;;2.64;100.00;97991.59;1726321;82;21098;-62
2022/02/17 06:55:25;;;;;;;;;;;;;;;2.70;100.00;97984.34;1741089;82;21003;-62
2022/02/17 06:57:53;;;;;;;66.20;38.28;;;;;;;2.76;100.00;97980.63;1728855;82;20101;-62
2022/02/17 07:00:20;;;;;;;61.42;38.85;;;;;;;2.77;100.00;97976.84;1734412;82;21043;-61
2022/02/17 07:02:54;;;;;;;65.17;40.58;;;;;;;2.82;100.00;97971.50;1739771;82;21062;-61
2022/02/17 07:05:25;;;;;;;64.30;39.50;;;;;;;2.86;100.00;97967.22;1741784;82;21588;-59
2022/02/17 07:07:52;;;;;;;61.05;38.55;;;;;;;2.91;100.00;97946.52;1727060;82;21091;-59
2022/02/17 07:10:54;;;;;;;60.98;39.38;;;;;;;2.98;100.00;97943.58;1745186;82;20983;-60
2022/02/17 07:12:48;;;;;;;65.28;40.12;;;;;;;3.06;100.00;97930.97;1733699;82;21507;-61
2022/02/17 07:15:14;;;;;;;64.72;40.92;;;;;;;3.16;100.00;97924.25;1725380;82;21019;-61
2022/02/17 07:17:41;;;;;;;60.33;38.35;;;;;;;3.21;100.00;97910.82;1726162;82;21058;-62
2022/02/17 07:20:09;;;;;;;64.53;39.35;;;;;;;3.25;100.00;97898.45;1722626;83;20979;-63
2022/02/17 07:22:35;;;;;;;64.00;39.90;;;;;;;3.37;100.00;97893.59;1726222;82;21121;-62
2022/02/17 07:25:02;;;;;;;63.05;39.95;;;;;;;3.57;100.00;97897.36;1749326;82;20981;-62
2022/02/17 07:27:29;;;;;;;62.67;39.20;;;;;;;3.75;100.00;97898.14;1739628;82;22027;-60
2022/02/17 07:29:56;;;;;;;65.75;40.30;;;;;;;3.88;100.00;97885.45;1741104;82;20975;-60
2022/02/17 07:32:24;;;;;;;63.08;39.90;;;;;;;3.96;100.00;97872.79;1722572;82;21102;-62
2022/02/17 07:34:52;;;;;;;62.98;40.83;;;;;;;4.06;100.00;97866.55;1729561;82;21014;-61
2022/02/17 07:37:19;;;;;;;62.70;40.70;;;;;;;4.07;100.00;97861.45;1730032;82;21102;-59
2022/02/17 07:39:47;;;;;;;58.50;39.67;;;;;;;4.01;100.00;97853.91;1732343;82;21644;-60
2022/02/17 07:42:15;;;;;;;57.48;39.35;;;;;;;4.06;100.00;97855.78;1736667;82;21574;-59
2022/02/17 07:44:43;;;;;;;59.77;40.65;;;;;;;4.06;100.00;97847.17;1724904;82;21601;-60
2022/02/17 07:47:09;;;;;;;63.92;42.65;;;;;;;4.09;100.00;97856.58;1746572;82;21565;-61
2022/02/17 07:49:36;;;;;;;63.20;39.90;;;;;;;4.16;100.00;97861.13;1761000;80;21608;-62
2022/02/17 07:52:04;;;;;;;62.27;40.55;;;;;;;4.26;100.00;97870.51;1757001;80;21114;-62
2022/02/17 07:54:30;;;;;;;59.83;38.70;;;;;;;4.34;100.00;97872.09;1706501;82;21062;-62
2022/02/17 07:57:00;;;;;;;61.08;40.73;;;;;;;4.58;100.00;97876.81;1733942;82;21574;-62
2022/02/17 07:59:26;;;;;;;58.08;39.30;;;;;;;4.94;100.00;97872.29;1722286;83;21085;-63
2022/02/17 08:01:53;;;;;;;61.73;42.05;;;;;;;5.21;100.00;97863.72;1726412;82;21038;-62
2022/02/17 08:04:20;;;;;;;59.53;39.95;;;;;;;5.15;100.00;97851.91;1750140;82;21027;-63
2022/02/17 08:06:46;;;;;;;56.37;38.45;;;;;;;5.00;100.00;97840.69;1733779;82;21050;-62
2022/02/17 08:09:13;;;;;;;59.85;40.25;;;;;;;4.92;100.00;97827.83;1743281;82;21027;-61
2022/02/17 08:11:40;;;;;;;61.15;38.90;;;;;;;5.07;100.00;97818.78;1737414;82;21000;-61
2022/02/17 08:14:07;;;;;;;56.33;38.85;;;;;;;5.15;100.00;97811.45;1750837;82;21106;-62
2022/02/17 08:16:35;;;;;;;59.65;39.00;;;;;;;5.03;100.00;97808.56;1746428;82;21063;-62
2022/02/17 08:19:05;;;;;;;58.00;39.25;;;;;;;4.88;100.00;97797.92;1724248;82;21091;-62
2022/02/17 08:21:31;;;;;;;56.63;38.10;;;;;;;4.72;100.00;97801.80;1750405;82;21038;-60
2022/02/17 08:23:58;;;;;;;56.50;38.83;;;;;;;4.70;100.00;97789.16;1749684;82;21121;-61
2022/02/17 08:26:24;;;;;;;69.58;44.25;;;;;;;4.89;100.00;97782.53;1699327;84;21031;-61
2022/02/17 08:28:57;;;;;;;56.15;38.25;;;;;;;5.10;100.00;97770.48;1679563;84;21060;-61
2022/02/17 08:31:19;;;;;;;87.12;52.00;;;;;;;5.44;100.00;97773.13;1682795;84;21507;-62
2022/02/17 08:33:45;;;;;;;57.45;38.42;;;;;;;5.66;100.00;97770.73;1693197;83;21102;-60
2022/02/17 08:36:14;;;;;;;64.60;43.25;;;;;;;5.78;100.00;97762.21;1706907;83;21499;-62
2022/02/17 08:38:43;;;;;;;68.22;42.75;;;;;;;5.91;100.00;97758.86;1690653;83;21071;-58
2022/02/17 08:41:10;;;;;;;57.45;39.80;;;;;;;6.02;100.00;97756.29;1701422;83;21024;-59
2022/02/17 08:43:39;;;;;;;49.18;34.90;;;;;;;6.07;100.00;97766.20;1689572;85;21095;-59
2022/02/17 08:46:05;;;;;;;50.45;36.70;;;;;;;6.15;100.00;97762.32;1694817;83;21007;-60
2022/02/17 08:48:32;;;;;;;54.05;38.42;;;;;;;6.16;100.00;97746.38;1714032;83;21083;-60
2022/02/17 08:50:59;;;;;;;51.15;36.15;;;;;;;6.11;100.00;97738.33;1694556;83;21000;-60
2022/02/17 08:53:28;;;;;;;54.70;38.63;;;;;;;6.03;100.00;97736.27;1691481;83;21055;-60
2022/02/17 08:55:54;;;;;;;54.98;34.20;;;;;;;5.96;100.00;97728.53;1689658;85;21027;-60
2022/02/17 08:58:21;;;;;;;61.33;41.23;;;;;;;5.85;100.00;97720.81;1716921;83;21122;-60
2022/02/17 09:00:47;;;;;;;65.97;43.17;;;;;;;5.79;100.00;97719.28;1707370;82;21071;-59
2022/02/17 09:03:14;;;;;;;50.03;35.10;;;;;;;5.71;100.00;97706.41;1695744;83;21154;-58
2022/02/17 09:05:41;;;;;;;58.42;39.80;;;;;;;5.69;100.00;97703.21;1690245;83;21065;-59
2022/02/17 09:08:09;;;;;;;;;;;;;;;5.79;100.00;97679.59;1694675;83;21572;-60
2022/02/17 09:10:37;;;;;;;55.25;37.55;;;;;;;5.82;100.00;97683.05;1714035;83;20188;-60
2022/02/17 09:13:03;;;;;;;52.53;35.33;;;;;;;5.80;100.00;97677.70;1667090;84;21077;-59
2022/02/17 09:15:30;;;;;;;51.60;35.30;;;;;;;5.84;100.00;97675.48;1679244;84;20990;-59
2022/02/17 09:17:57;;;;;;;43.23;30.48;;;;;;;5.97;100.00;97672.08;1669415;84;21093;-59
2022/02/17 09:20:23;;;;;;;44.67;32.58;;;;;;;6.00;100.00;97664.73;1714962;83;21553;-60
2022/02/17 09:22:50;;;;;;;;;;;;;;;6.02;100.00;97652.31;1698349;83;21142;-59
2022/02/17 09:25:17;;;;;;;44.90;30.32;;;;;;;6.03;100.00;97636.88;1708730;83;20163;-61
2022/02/17 09:27:43;;;;;;;43.65;29.98;;;;;;;6.08;100.00;97626.81;1667210;86;21152;-59
2022/02/17 09:30:10;;;;;;;;;;;;;;;6.24;100.00;97624.12;1700046;83;21054;-59
2022/02/17 09:32:37;;;;;;;45.43;29.20;;;;;;;6.38;100.00;97618.76;1706070;83;20115;-59
2022/02/17 09:35:04;;;;;;;38.75;27.60;;;;;;;6.49;100.00;97616.14;1661209;84;20982;-59
2022/02/17 09:37:31;;;;;;;38.50;28.17;;;;;;;6.58;100.00;97607.63;1674640;85;21402;-59
2022/02/17 09:39:59;;;;;;;;;;;;;;;6.68;100.00;97589.86;1714645;82;21020;-59
2022/02/17 09:42:26;;;;;;;38.83;27.50;;;;;;;6.63;100.00;97585.08;1734790;82;20095;-60
2022/02/17 09:44:53;;;;;;;36.95;27.52;;;;;;;6.50;100.00;97571.80;1731315;82;20976;-64
2022/02/17 09:47:19;;;;;;;38.60;26.70;;;;;;;6.49;100.00;97570.19;1694382;82;21347;-72
2022/02/17 09:49:46;;;;;;;38.35;26.45;;;;;;;6.56;100.00;97567.09;1737506;82;21789;-64
2022/02/17 09:52:13;;;;;;;;;;;;;;;6.53;100.00;97558.23;1739235;82;21692;-67
2022/02/17 09:54:40;;;;;;;34.92;24.65;;;;;;;6.46;100.00;97554.58;1720607;81;20109;-59
2022/02/17 09:57:06;;;;;;;;;;;;;;;6.37;100.00;97552.32;1696943;82;21067;-59
2022/02/17 09:59:33;;;;;;;35.20;24.95;;;;;;;6.46;100.00;97554.58;1706581;82;20394;-58
2022/02/17 10:02:05;;;;;;;34.53;24.67;;;;;;;6.49;100.00;97547.22;1738578;82;21044;-58
2022/02/17 10:04:34;;;;;;;31.15;23.62;;;;;;;6.54;100.00;97557.14;1725373;82;21351;-59
2022/02/17 10:07:02;;;;;;;30.52;22.70;;;;;;;6.55;100.00;97549.30;1720274;82;21609;-59
2022/02/17 10:09:46;;;;;;;33.78;23.45;;;;;;;6.59;100.00;97540.84;1717840;82;21067;-59
2022/02/17 10:12:15;;;;;;;28.70;21.62;;;;;;;6.71;100.00;97543.84;1729705;82;21095;-59
2022/02/17 10:14:43;;;;;;;31.30;22.10;;;;;;;6.81;100.00;97526.88;1728139;81;21015;-59
2022/02/17 10:17:11;;;;;;;27.32;20.70;;;;;;;6.86;100.00;97528.68;1738209;82;21621;-59
2022/02/17 10:19:47;;;;;;;25.17;19.42;;;;;;;6.91;100.00;97524.50;1718457;82;21051;-59
2022/02/17 10:22:19;;;;;;;27.25;19.12;;;;;;;6.95;100.00;97518.20;1699234;82;21106;-59
2022/02/17 10:24:50;;;;;;;26.62;18.30;;;;;;;7.04;100.00;97503.42;1707414;82;21058;-58
2022/02/17 10:27:25;;;;;;;24.50;17.55;;;;;;;7.14;100.00;97508.63;1697769;82;21162;-58
2022/02/17 10:30:12;;;;;;;25.43;17.55;;;;;;;7.15;100.00;97487.78;1735923;82;21514;-58
2022/02/17 10:32:57;;;;;;;24.47;17.42;;;;;;;7.16;100.00;97482.05;1737578;82;21472;-58
2022/02/17 10:35:25;;;;;;;24.90;19.42;;;;;;;7.17;100.00;97479.60;1733766;82;21498;-58
2022/02/17 10:37:57;;;;;;;21.20;16.48;;;;;;;7.13;100.00;97473.19;1739442;82;21605;-58
2022/02/17 10:40:27;;;;;;;19.90;15.10;;;;;;;7.16;100.00;97469.87;1741897;82;21010;-58
2022/02/17 10:43:11;;;;;;;18.87;15.05;;;;;;;7.22;100.00;97463.81;1752476;82;21070;-59
2022/02/17 10:45:48;;;;;;;22.82;15.48;;;;;;;7.30;100.00;97465.22;1742468;81;20990;-59
2022/02/17 10:48:27;;;;;;;18.48;15.25;;;;;;;7.27;100.00;97452.86;1745966;82;21043;-59
2022/02/17 10:51:16;;;;;;;23.75;17.17;;;;;;;7.20;100.00;97447.87;1736944;82;20966;-59
2022/02/17 10:53:45;;;;;;;20.97;15.85;;;;;;;7.11;100.00;97445.65;1739959;82;21529;-58
2022/02/17 10:56:15;;;;;;;18.70;13.95;;;;;;;7.03;100.00;97445.01;1744195;82;21553;-58
2022/02/17 10:58:47;;;;;;;20.30;14.45;;;;;;;6.99;100.00;97433.19;1745858;82;21577;-59
2022/02/17 11:01:13;;;;;;;19.70;15.35;;;;;;;6.98;100.00;97429.68;1734703;81;21017;-59
2022/02/17 11:03:40;;;;;;;19.40;14.58;;;;;;;6.86;100.00;97420.50;1743404;82;21189;-59
2022/02/17 11:06:10;;;;;;;18.92;14.85;;;;;;;6.76;100.00;97416.67;1736786;82;21030;-59
2022/02/17 11:08:39;;;;;;;18.90;14.30;;;;;;;6.64;100.00;97405.02;1738431;82;21094;-57
2022/02/17 11:11:07;;;;;;;22.15;15.60;;;;;;;6.58;100.00;97406.23;1741329;82;21039;-58
2022/02/17 11:13:33;;;;;;;21.87;16.02;;;;;;;6.50;100.00;97410.44;1722827;82;21076;-59
2022/02/17 11:16:03;;;;;;;22.82;16.93;;;;;;;6.39;100.00;97402.28;1722621;82;21382;-60
2022/02/17 11:18:31;;;;;;;22.48;15.65;;;;;;;6.30;100.00;97391.94;1722142;83;21164;-58
2022/02/17 11:21:00;;;;;;;20.80;15.28;;;;;;;6.30;100.00;97386.53;1740908;82;21075;-59
2022/02/17 11:23:35;;;;;;;24.77;17.25;;;;;;;6.31;100.00;97385.41;1754937;80;21000;-59
2022/02/17 11:26:08;;;;;;;22.48;16.15;;;;;;;6.21;100.00;97369.95;1726960;82;21015;-58
2022/02/17 11:28:37;;;;;;;19.42;14.18;;;;;;;6.13;100.00;97361.22;1717775;83;21118;-58
2022/02/17 11:31:08;;;;;;;19.50;14.33;;;;;;;6.09;100.00;97350.77;1722334;82;20991;-58
2022/02/17 11:33:37;;;;;;;18.30;13.60;;;;;;;6.10;100.00;97345.59;1749675;81;21034;-59
2022/02/17 11:36:24;;;;;;;21.68;14.40;;;;;;;6.06;100.00;97351.37;1738148;82;21035;-59
2022/02/17 11:39:00;;;;;;;19.55;13.72;;;;;;;5.99;100.00;97350.39;1738155;82;21486;-59